Terminal Aerodrome Forecast
Issued by NWS

Home | Current Version | Previous Version | Text Only | Print | Product List | Glossary On
Versions: 1 2 3 4 5 6 7 8 9 10 11 12 13 14 15 16 17 18 19 20 21 22 23 24 25 26 27 28 29
000
FTUS43 KICT 260317 AAB
TAFSLN
TAF AMD
KSLN 260317Z 2603/2624 18012G21KT P6SM VCTS SCT040CB BKN100
      TEMPO 2603/2607 VRB15G25KT 5SM TSRA OVC030CB
     FM260900 23009KT P6SM SCT008 SCT150
     FM261700 27008KT P6SM SCT040=

USA.gov is the U.S. government's official web portal to all federal, state and local government web resources and services.